YTEF/TEF METAR and TAF weather

Enter ICAO airport designator
Station Type Date Time Source
YTEF METAR 2021/03/04 21:00 UTC NOAA

YTEF 042100Z AUTO 27008KT 9999 // NCD 30/17 Q1009


Station Type Date Time Source
YTEF Decoded METAR 2021/03/04 21:00 UTC NOAA

Station name not available
Mar 04, 2021 - 04:00 PM EST / 2021.03.04 2100 UTC
Wind: from the W (270 degrees) at 9 MPH (8 KT):0
Visibility: greater than 7 mile(s):0
Temperature: 86 F (30 C)
Dew Point: 62 F (17 C)
Relative Humidity: 45%
Pressure (altimeter): 29.80 in. Hg (1009 hPa)
ob: YTEF 042100Z AUTO 27008KT 9999 // NCD 30/17 Q1009
cycle: 21

Station Type Date Time Source
YTEF TAF 2017/06/24 02:03 UTC NOAA

TAF TAF YTEF 240051Z 2402/2414 12005KT CAVOK
FM240500 33005KT 9999 -SHRA SCT060 BKN100

Example: see airport list